sensor_id;sensor_type;location;lat;lon;timestamp;pressure;altitude;pressure_sealevel;temperature;humidity
77889;BME280;67082;41.704;44.768;2023-07-13T00:00:59;96019.06;;;19.34;49.98
77889;BME280;67082;41.704;44.768;2023-07-13T00:03:39;96014.00;;;19.38;50.25
77889;BME280;67082;41.704;44.768;2023-07-13T00:06:09;96016.22;;;19.28;49.80
77889;BME280;67082;41.704;44.768;2023-07-13T00:08:38;96018.38;;;19.13;50.80
77889;BME280;67082;41.704;44.768;2023-07-13T00:11:06;96025.53;;;19.14;50.97
77889;BME280;67082;41.704;44.768;2023-07-13T00:13:35;96030.75;;;19.21;51.04
77889;BME280;67082;41.704;44.768;2023-07-13T00:16:06;96024.28;;;19.15;50.89
77889;BME280;67082;41.704;44.768;2023-07-13T00:18:35;96028.69;;;19.22;51.13
77889;BME280;67082;41.704;44.768;2023-07-13T00:21:03;96029.00;;;19.29;50.80
77889;BME280;67082;41.704;44.768;2023-07-13T00:23:38;96035.13;;;19.28;50.89
77889;BME280;67082;41.704;44.768;2023-07-13T00:26:08;96035.53;;;19.15;51.10
77889;BME280;67082;41.704;44.768;2023-07-13T00:28:39;96048.84;;;18.89;52.22
77889;BME280;67082;41.704;44.768;2023-07-13T00:31:08;96041.25;;;18.70;52.67
77889;BME280;67082;41.704;44.768;2023-07-13T00:33:37;96044.94;;;18.81;52.77
77889;BME280;67082;41.704;44.768;2023-07-13T00:36:05;96053.53;;;18.72;52.43
77889;BME280;67082;41.704;44.768;2023-07-13T00:38:34;96057.25;;;18.89;52.47
77889;BME280;67082;41.704;44.768;2023-07-13T00:41:03;96046.03;;;18.89;51.85
77889;BME280;67082;41.704;44.768;2023-07-13T00:43:32;96046.75;;;18.84;52.07
77889;BME280;67082;41.704;44.768;2023-07-13T00:48:48;96049.19;;;19.02;52.51
77889;BME280;67082;41.704;44.768;2023-07-13T00:54:19;96056.16;;;19.07;52.42
77889;BME280;67082;41.704;44.768;2023-07-13T00:56:51;96056.91;;;19.07;52.49
77889;BME280;67082;41.704;44.768;2023-07-13T00:59:21;96045.56;;;18.96;52.07
77889;BME280;67082;41.704;44.768;2023-07-13T01:01:50;96043.06;;;18.98;52.39
77889;BME280;67082;41.704;44.768;2023-07-13T01:04:19;96050.72;;;18.72;53.00
77889;BME280;67082;41.704;44.768;2023-07-13T01:07:12;96049.09;;;18.60;53.46
77889;BME280;67082;41.704;44.768;2023-07-13T01:09:40;96051.66;;;18.64;53.48
77889;BME280;67082;41.704;44.768;2023-07-13T01:12:09;96052.75;;;18.72;53.10
77889;BME280;67082;41.704;44.768;2023-07-13T01:14:37;96042.84;;;18.76;53.36
77889;BME280;67082;41.704;44.768;2023-07-13T01:17:10;96056.66;;;18.80;53.09
77889;BME280;67082;41.704;44.768;2023-07-13T01:19:42;96056.44;;;18.83;54.00
77889;BME280;67082;41.704;44.768;2023-07-13T01:22:14;96059.53;;;18.85;52.94
77889;BME280;67082;41.704;44.768;2023-07-13T01:24:45;96050.56;;;18.81;53.54
77889;BME280;67082;41.704;44.768;2023-07-13T01:27:20;96051.81;;;18.80;53.31
77889;BME280;67082;41.704;44.768;2023-07-13T01:29:49;96050.34;;;18.59;53.50
77889;BME280;67082;41.704;44.768;2023-07-13T01:32:20;96043.19;;;18.58;53.61
77889;BME280;67082;41.704;44.768;2023-07-13T01:34:55;96053.66;;;18.58;53.45
77889;BME280;67082;41.704;44.768;2023-07-13T01:37:25;96055.13;;;18.53;53.47
77889;BME280;67082;41.704;44.768;2023-07-13T01:39:53;96056.22;;;18.61;53.05
77889;BME280;67082;41.704;44.768;2023-07-13T01:42:21;96056.00;;;18.65;53.35
77889;BME280;67082;41.704;44.768;2023-07-13T01:44:50;96053.97;;;18.65;53.40
77889;BME280;67082;41.704;44.768;2023-07-13T01:47:18;96059.16;;;18.72;53.30
77889;BME280;67082;41.704;44.768;2023-07-13T01:49:46;96068.28;;;18.67;53.20
77889;BME280;67082;41.704;44.768;2023-07-13T01:52:15;96061.97;;;18.72;53.80
77889;BME280;67082;41.704;44.768;2023-07-13T01:54:43;96064.41;;;18.90;53.14
77889;BME280;67082;41.704;44.768;2023-07-13T01:57:11;96063.72;;;19.26;51.80
77889;BME280;67082;41.704;44.768;2023-07-13T01:59:40;96064.94;;;19.98;49.91
77889;BME280;67082;41.704;44.768;2023-07-13T02:02:08;96070.03;;;20.58;49.04
77889;BME280;67082;41.704;44.768;2023-07-13T02:04:36;96064.53;;;21.08;47.71
77889;BME280;67082;41.704;44.768;2023-07-13T02:07:04;96068.09;;;21.52;46.69
77889;BME280;67082;41.704;44.768;2023-07-13T02:09:33;96072.16;;;21.73;46.24
77889;BME280;67082;41.704;44.768;2023-07-13T02:12:01;96075.47;;;21.99;45.20
77889;BME280;67082;41.704;44.768;2023-07-13T02:14:34;96068.13;;;22.37;44.27
77889;BME280;67082;41.704;44.768;2023-07-13T02:17:04;96068.72;;;22.76;43.94
77889;BME280;67082;41.704;44.768;2023-07-13T02:19:33;96071.50;;;23.51;41.57
77889;BME280;67082;41.704;44.768;2023-07-13T02:22:01;96071.34;;;23.44;40.88
77889;BME280;67082;41.704;44.768;2023-07-13T02:24:30;96069.19;;;23.79;39.93
77889;BME280;67082;41.704;44.768;2023-07-13T02:26:58;96081.28;;;23.80;39.35
77889;BME280;67082;41.704;44.768;2023-07-13T02:29:27;96072.38;;;23.41;40.24
77889;BME280;67082;41.704;44.768;2023-07-13T02:31:55;96079.56;;;23.71;39.77
77889;BME280;67082;41.704;44.768;2023-07-13T02:34:24;96066.13;;;23.77;39.79
77889;BME280;67082;41.704;44.768;2023-07-13T02:36:52;96073.09;;;23.76;40.25
77889;BME280;67082;41.704;44.768;2023-07-13T02:39:21;96073.13;;;24.00;39.80
77889;BME280;67082;41.704;44.768;2023-07-13T02:41:49;96062.16;;;24.34;39.53
77889;BME280;67082;41.704;44.768;2023-07-13T02:44:17;96071.31;;;24.45;39.44
77889;BME280;67082;41.704;44.768;2023-07-13T02:46:45;96073.13;;;24.00;39.92
77889;BME280;67082;41.704;44.768;2023-07-13T02:49:14;96069.59;;;23.94;40.28
77889;BME280;67082;41.704;44.768;2023-07-13T02:51:42;96073.63;;;23.45;41.33
77889;BME280;67082;41.704;44.768;2023-07-13T02:54:11;96077.25;;;23.40;41.26
77889;BME280;67082;41.704;44.768;2023-07-13T02:56:41;96084.47;;;23.41;41.69
77889;BME280;67082;41.704;44.768;2023-07-13T02:59:11;96070.50;;;23.19;41.97
77889;BME280;67082;41.704;44.768;2023-07-13T03:01:39;96077.97;;;23.11;42.20
77889;BME280;67082;41.704;44.768;2023-07-13T03:04:09;96072.25;;;22.87;42.67
77889;BME280;67082;41.704;44.768;2023-07-13T03:06:37;96078.00;;;22.65;43.44
77889;BME280;67082;41.704;44.768;2023-07-13T03:09:05;96071.34;;;22.68;43.58
77889;BME280;67082;41.704;44.768;2023-07-13T03:11:35;96076.97;;;22.68;43.10
77889;BME280;67082;41.704;44.768;2023-07-13T03:14:18;96079.41;;;22.88;43.12
77889;BME280;67082;41.704;44.768;2023-07-13T03:16:46;96086.06;;;22.45;44.13
77889;BME280;67082;41.704;44.768;2023-07-13T03:19:18;96085.75;;;22.59;44.03
77889;BME280;67082;41.704;44.768;2023-07-13T03:21:49;96081.66;;;22.60;43.71
77889;BME280;67082;41.704;44.768;2023-07-13T03:24:18;96082.72;;;22.52;43.76
77889;BME280;67082;41.704;44.768;2023-07-13T03:26:46;96086.63;;;22.89;43.04
77889;BME280;67082;41.704;44.768;2023-07-13T03:29:14;96082.94;;;23.00;43.18
77889;BME280;67082;41.704;44.768;2023-07-13T03:31:43;96077.06;;;22.98;43.22
77889;BME280;67082;41.704;44.768;2023-07-13T03:34:12;96073.84;;;22.77;43.42
77889;BME280;67082;41.704;44.768;2023-07-13T03:36:41;96084.94;;;22.70;43.79
77889;BME280;67082;41.704;44.768;2023-07-13T03:39:11;96086.25;;;22.69;43.53
77889;BME280;67082;41.704;44.768;2023-07-13T03:41:53;96083.13;;;22.72;43.36
77889;BME280;67082;41.704;44.768;2023-07-13T03:44:23;96092.88;;;22.71;43.56
77889;BME280;67082;41.704;44.768;2023-07-13T03:46:54;96093.44;;;22.64;43.93
77889;BME280;67082;41.704;44.768;2023-07-13T03:49:23;96083.25;;;22.50;44.04
77889;BME280;67082;41.704;44.768;2023-07-13T03:51:51;96094.28;;;22.48;43.68
77889;BME280;67082;41.704;44.768;2023-07-13T03:54:21;96090.53;;;22.81;43.80
77889;BME280;67082;41.704;44.768;2023-07-13T03:56:49;96081.00;;;22.84;43.21
77889;BME280;67082;41.704;44.768;2023-07-13T03:59:19;96088.97;;;22.85;43.56
77889;BME280;67082;41.704;44.768;2023-07-13T04:01:48;96092.88;;;22.71;43.44
77889;BME280;67082;41.704;44.768;2023-07-13T04:04:16;96094.53;;;22.96;43.51
77889;BME280;67082;41.704;44.768;2023-07-13T04:06:44;96091.22;;;22.92;43.53
77889;BME280;67082;41.704;44.768;2023-07-13T04:09:13;96086.25;;;22.63;44.00
77889;BME280;67082;41.704;44.768;2023-07-13T04:11:41;96103.38;;;22.82;43.67
77889;BME280;67082;41.704;44.768;2023-07-13T04:14:10;96102.47;;;23.03;43.08
77889;BME280;67082;41.704;44.768;2023-07-13T04:16:38;96095.78;;;23.06;43.54
77889;BME280;67082;41.704;44.768;2023-07-13T04:19:08;96091.94;;;22.98;43.88
77889;BME280;67082;41.704;44.768;2023-07-13T04:21:37;96106.16;;;22.87;43.25
77889;BME280;67082;41.704;44.768;2023-07-13T04:24:07;96097.94;;;22.89;43.86
77889;BME280;67082;41.704;44.768;2023-07-13T04:26:35;96108.69;;;22.91;43.67
77889;BME280;67082;41.704;44.768;2023-07-13T04:29:05;96115.53;;;22.66;43.94
77889;BME280;67082;41.704;44.768;2023-07-13T04:31:33;96108.56;;;22.67;44.22
77889;BME280;67082;41.704;44.768;2023-07-13T04:34:02;96112.03;;;22.43;44.96
77889;BME280;67082;41.704;44.768;2023-07-13T04:36:30;96121.50;;;22.51;45.37
77889;BME280;67082;41.704;44.768;2023-07-13T04:38:58;96118.66;;;22.51;44.85
77889;BME280;67082;41.704;44.768;2023-07-13T04:41:26;96121.75;;;22.42;45.08
77889;BME280;67082;41.704;44.768;2023-07-13T04:43:56;96118.44;;;22.44;45.10
77889;BME280;67082;41.704;44.768;2023-07-13T04:46:24;96120.50;;;22.38;44.98
77889;BME280;67082;41.704;44.768;2023-07-13T04:48:52;96118.97;;;22.37;44.96
77889;BME280;67082;41.704;44.768;2023-07-13T04:51:21;96120.53;;;22.32;44.55
77889;BME280;67082;41.704;44.768;2023-07-13T04:53:49;96115.34;;;22.42;44.25
77889;BME280;67082;41.704;44.768;2023-07-13T04:56:25;96110.19;;;22.51;43.78
77889;BME280;67082;41.704;44.768;2023-07-13T04:58:53;96103.81;;;22.34;44.22
77889;BME280;67082;41.704;44.768;2023-07-13T05:01:21;96106.41;;;22.32;44.43
77889;BME280;67082;41.704;44.768;2023-07-13T05:03:50;96103.34;;;22.19;44.58
77889;BME280;67082;41.704;44.768;2023-07-13T05:06:18;96104.91;;;22.20;44.54
77889;BME280;67082;41.704;44.768;2023-07-13T05:08:47;96102.88;;;22.15;44.51
77889;BME280;67082;41.704;44.768;2023-07-13T05:11:15;96106.47;;;22.10;44.35
77889;BME280;67082;41.704;44.768;2023-07-13T05:13:43;96092.06;;;22.19;44.56
77889;BME280;67082;41.704;44.768;2023-07-13T05:16:11;96095.38;;;22.29;44.03
77889;BME280;67082;41.704;44.768;2023-07-13T05:18:40;96092.59;;;22.18;44.08
77889;BME280;67082;41.704;44.768;2023-07-13T05:21:11;96085.19;;;22.04;44.71
77889;BME280;67082;41.704;44.768;2023-07-13T05:23:40;96102.38;;;22.00;44.74
77889;BME280;67082;41.704;44.768;2023-07-13T05:26:11;96105.44;;;22.02;44.80
77889;BME280;67082;41.704;44.768;2023-07-13T05:28:40;96093.66;;;22.04;44.76
77889;BME280;67082;41.704;44.768;2023-07-13T05:31:09;96104.97;;;21.98;44.67
77889;BME280;67082;41.704;44.768;2023-07-13T05:33:39;96102.41;;;21.95;45.10
77889;BME280;67082;41.704;44.768;2023-07-13T05:36:07;96096.53;;;21.82;45.27
77889;BME280;67082;41.704;44.768;2023-07-13T05:38:36;96090.59;;;21.96;45.08
77889;BME280;67082;41.704;44.768;2023-07-13T05:41:04;96086.00;;;21.93;45.33
77889;BME280;67082;41.704;44.768;2023-07-13T05:43:35;96079.81;;;22.00;45.10
77889;BME280;67082;41.704;44.768;2023-07-13T05:46:03;96073.38;;;22.05;45.22
77889;BME280;67082;41.704;44.768;2023-07-13T05:48:31;96077.19;;;22.13;45.21
77889;BME280;67082;41.704;44.768;2023-07-13T05:51:00;96075.41;;;22.05;45.80
77889;BME280;67082;41.704;44.768;2023-07-13T05:53:29;96083.66;;;22.03;45.33
77889;BME280;67082;41.704;44.768;2023-07-13T05:55:57;96072.88;;;22.07;45.59
77889;BME280;67082;41.704;44.768;2023-07-13T05:58:30;96083.34;;;22.17;45.41
77889;BME280;67082;41.704;44.768;2023-07-13T06:01:06;96081.25;;;22.29;45.47
77889;BME280;67082;41.704;44.768;2023-07-13T06:03:36;96083.09;;;22.15;45.58
77889;BME280;67082;41.704;44.768;2023-07-13T06:06:07;96089.47;;;22.27;45.54
77889;BME280;67082;41.704;44.768;2023-07-13T06:08:37;96081.50;;;22.31;45.47
77889;BME280;67082;41.704;44.768;2023-07-13T06:11:07;96073.00;;;22.36;44.92
77889;BME280;67082;41.704;44.768;2023-07-13T06:13:36;96077.88;;;22.47;45.07
77889;BME280;67082;41.704;44.768;2023-07-13T06:16:05;96079.63;;;22.50;45.39
77889;BME280;67082;41.704;44.768;2023-07-13T06:18:36;96080.66;;;22.52;45.03
77889;BME280;67082;41.704;44.768;2023-07-13T06:21:13;96074.44;;;22.59;45.22
77889;BME280;67082;41.704;44.768;2023-07-13T06:23:43;96074.22;;;22.57;44.93
77889;BME280;67082;41.704;44.768;2023-07-13T06:26:11;96072.50;;;22.43;45.27
77889;BME280;67082;41.704;44.768;2023-07-13T06:28:39;96073.75;;;22.48;45.32
77889;BME280;67082;41.704;44.768;2023-07-13T06:31:09;96072.91;;;22.58;44.77
77889;BME280;67082;41.704;44.768;2023-07-13T06:33:39;96081.16;;;22.56;45.21
77889;BME280;67082;41.704;44.768;2023-07-13T06:36:08;96064.72;;;22.60;45.15
77889;BME280;67082;41.704;44.768;2023-07-13T06:38:37;96074.66;;;22.67;44.82
77889;BME280;67082;41.704;44.768;2023-07-13T06:41:07;96061.88;;;22.60;44.56
77889;BME280;67082;41.704;44.768;2023-07-13T06:43:37;96070.28;;;22.71;44.76
77889;BME280;67082;41.704;44.768;2023-07-13T06:46:05;96073.84;;;22.77;44.99
77889;BME280;67082;41.704;44.768;2023-07-13T06:48:34;96062.81;;;22.74;44.43
77889;BME280;67082;41.704;44.768;2023-07-13T06:51:03;96064.09;;;22.78;43.91
77889;BME280;67082;41.704;44.768;2023-07-13T06:53:31;96059.97;;;22.79;43.96
77889;BME280;67082;41.704;44.768;2023-07-13T06:56:05;96048.31;;;22.94;44.01
77889;BME280;67082;41.704;44.768;2023-07-13T06:58:34;96045.69;;;23.01;43.63
77889;BME280;67082;41.704;44.768;2023-07-13T07:01:02;96035.84;;;23.08;43.27
77889;BME280;67082;41.704;44.768;2023-07-13T07:03:31;96040.41;;;23.16;43.96
77889;BME280;67082;41.704;44.768;2023-07-13T07:06:13;96031.38;;;23.23;43.24
77889;BME280;67082;41.704;44.768;2023-07-13T07:08:42;96040.03;;;23.36;43.76
77889;BME280;67082;41.704;44.768;2023-07-13T07:11:16;96044.31;;;23.43;42.70
77889;BME280;67082;41.704;44.768;2023-07-13T07:13:45;96043.28;;;23.46;43.04
77889;BME280;67082;41.704;44.768;2023-07-13T07:16:14;96033.47;;;23.52;42.55
77889;BME280;67082;41.704;44.768;2023-07-13T07:18:43;96030.03;;;23.59;42.70
77889;BME280;67082;41.704;44.768;2023-07-13T07:21:12;96022.25;;;23.65;43.06
77889;BME280;67082;41.704;44.768;2023-07-13T07:23:42;96022.44;;;23.73;42.69
77889;BME280;67082;41.704;44.768;2023-07-13T07:26:11;96024.19;;;23.76;41.67
77889;BME280;67082;41.704;44.768;2023-07-13T07:28:39;96016.41;;;23.82;42.31
77889;BME280;67082;41.704;44.768;2023-07-13T07:31:12;96012.50;;;23.90;42.57
77889;BME280;67082;41.704;44.768;2023-07-13T07:33:43;96014.72;;;23.97;40.06
77889;BME280;67082;41.704;44.768;2023-07-13T07:36:12;96008.47;;;24.04;40.16
77889;BME280;67082;41.704;44.768;2023-07-13T07:38:43;96002.66;;;24.15;38.97
77889;BME280;67082;41.704;44.768;2023-07-13T07:41:12;96012.31;;;24.25;38.99
77889;BME280;67082;41.704;44.768;2023-07-13T07:43:43;95998.00;;;24.36;39.45
77889;BME280;67082;41.704;44.768;2023-07-13T07:46:11;95996.13;;;24.44;39.18
77889;BME280;67082;41.704;44.768;2023-07-13T07:48:40;96003.69;;;24.55;39.00
77889;BME280;67082;41.704;44.768;2023-07-13T07:51:08;95996.44;;;24.59;37.88
77889;BME280;67082;41.704;44.768;2023-07-13T07:53:37;96000.56;;;24.58;37.15
77889;BME280;67082;41.704;44.768;2023-07-13T07:56:04;95998.56;;;24.53;37.70
77889;BME280;67082;41.704;44.768;2023-07-13T07:58:53;96001.34;;;24.59;36.33
77889;BME280;67082;41.704;44.768;2023-07-13T08:01:25;95999.94;;;24.65;35.42
77889;BME280;67082;41.704;44.768;2023-07-13T08:03:57;95990.91;;;24.67;35.56
77889;BME280;67082;41.704;44.768;2023-07-13T08:06:28;95993.81;;;24.61;36.29
77889;BME280;67082;41.704;44.768;2023-07-13T08:09:12;95993.53;;;24.65;35.86
77889;BME280;67082;41.704;44.768;2023-07-13T08:11:40;95989.28;;;24.71;36.60
77889;BME280;67082;41.704;44.768;2023-07-13T08:14:11;95976.66;;;24.72;37.07
77889;BME280;67082;41.704;44.768;2023-07-13T08:16:39;95982.47;;;24.80;36.39
77889;BME280;67082;41.704;44.768;2023-07-13T08:19:10;95975.41;;;24.86;36.31
77889;BME280;67082;41.704;44.768;2023-07-13T08:21:39;95987.44;;;24.92;35.31
77889;BME280;67082;41.704;44.768;2023-07-13T08:24:07;95972.41;;;24.97;35.74
77889;BME280;67082;41.704;44.768;2023-07-13T08:26:36;95964.34;;;25.01;34.77
77889;BME280;67082;41.704;44.768;2023-07-13T08:29:04;95957.81;;;25.06;34.90
77889;BME280;67082;41.704;44.768;2023-07-13T08:31:32;95961.78;;;25.16;34.26
77889;BME280;67082;41.704;44.768;2023-07-13T08:34:01;95954.16;;;25.24;34.34
77889;BME280;67082;41.704;44.768;2023-07-13T08:36:29;95956.59;;;25.33;33.37
77889;BME280;67082;41.704;44.768;2023-07-13T08:39:00;95955.06;;;25.32;33.55
77889;BME280;67082;41.704;44.768;2023-07-13T08:41:28;95949.84;;;25.36;33.05
77889;BME280;67082;41.704;44.768;2023-07-13T08:43:59;95939.91;;;25.43;32.74
77889;BME280;67082;41.704;44.768;2023-07-13T08:46:36;95935.03;;;25.56;33.26
77889;BME280;67082;41.704;44.768;2023-07-13T08:49:17;95941.78;;;25.66;32.88
77889;BME280;67082;41.704;44.768;2023-07-13T08:52:04;95938.50;;;25.75;33.72
77889;BME280;67082;41.704;44.768;2023-07-13T08:54:41;95947.03;;;25.75;32.08
77889;BME280;67082;41.704;44.768;2023-07-13T08:57:17;95925.84;;;25.76;32.36
77889;BME280;67082;41.704;44.768;2023-07-13T08:59:47;95926.47;;;25.82;32.88
77889;BME280;67082;41.704;44.768;2023-07-13T09:02:25;95928.13;;;25.78;33.48
77889;BME280;67082;41.704;44.768;2023-07-13T09:10:18;95913.38;;;26.05;30.97
77889;BME280;67082;41.704;44.768;2023-07-13T09:15:45;95905.84;;;26.21;30.97
77889;BME280;67082;41.704;44.768;2023-07-13T09:18:30;95903.63;;;26.27;29.94
77889;BME280;67082;41.704;44.768;2023-07-13T09:21:12;95903.50;;;26.32;29.96
77889;BME280;67082;41.704;44.768;2023-07-13T09:23:41;95899.34;;;26.33;30.18
77889;BME280;67082;41.704;44.768;2023-07-13T09:26:21;95889.28;;;26.32;30.87
77889;BME280;67082;41.704;44.768;2023-07-13T09:28:53;95886.09;;;26.36;30.57
77889;BME280;67082;41.704;44.768;2023-07-13T09:31:28;95884.78;;;26.37;30.14
77889;BME280;67082;41.704;44.768;2023-07-13T09:34:02;95882.81;;;26.45;29.40
77889;BME280;67082;41.704;44.768;2023-07-13T09:36:33;95879.81;;;26.50;28.85
77889;BME280;67082;41.704;44.768;2023-07-13T09:39:33;95871.09;;;26.48;28.74
77889;BME280;67082;41.704;44.768;2023-07-13T09:45:00;95868.63;;;26.65;29.29
77889;BME280;67082;41.704;44.768;2023-07-13T09:47:38;95873.19;;;26.68;28.84
77889;BME280;67082;41.704;44.768;2023-07-13T09:50:15;95870.94;;;26.67;28.79
77889;BME280;67082;41.704;44.768;2023-07-13T09:52:49;95856.28;;;26.63;29.01
77889;BME280;67082;41.704;44.768;2023-07-13T09:55:32;95863.94;;;26.68;29.39
77889;BME280;67082;41.704;44.768;2023-07-13T09:58:11;95860.09;;;26.65;29.48
77889;BME280;67082;41.704;44.768;2023-07-13T10:00:42;95850.88;;;26.72;29.09
77889;BME280;67082;41.704;44.768;2023-07-13T10:03:26;95843.31;;;26.75;29.12
77889;BME280;67082;41.704;44.768;2023-07-13T10:06:03;95847.13;;;26.77;29.55
77889;BME280;67082;41.704;44.768;2023-07-13T10:08:35;95842.97;;;26.78;29.41
77889;BME280;67082;41.704;44.768;2023-07-13T10:11:19;95843.41;;;26.82;28.84
77889;BME280;67082;41.704;44.768;2023-07-13T10:13:56;95842.28;;;26.85;29.39
77889;BME280;67082;41.704;44.768;2023-07-13T10:16:27;95844.84;;;26.96;29.51
77889;BME280;67082;41.704;44.768;2023-07-13T10:19:15;95840.13;;;26.99;29.21
77889;BME280;67082;41.704;44.768;2023-07-13T10:22:00;95837.53;;;27.08;28.99
77889;BME280;67082;41.704;44.768;2023-07-13T10:24:33;95839.41;;;27.06;29.44
77889;BME280;67082;41.704;44.768;2023-07-13T10:27:15;95834.66;;;27.01;29.40
77889;BME280;67082;41.704;44.768;2023-07-13T10:30:02;95836.22;;;27.09;28.67
77889;BME280;67082;41.704;44.768;2023-07-13T10:32:38;95833.38;;;27.09;29.22
77889;BME280;67082;41.704;44.768;2023-07-13T10:35:12;95829.59;;;27.14;30.47
77889;BME280;67082;41.704;44.768;2023-07-13T10:37:51;95830.47;;;27.22;28.95
77889;BME280;67082;41.704;44.768;2023-07-13T10:40:57;95831.97;;;27.23;28.83
77889;BME280;67082;41.704;44.768;2023-07-13T10:43:31;95835.03;;;27.25;29.62
77889;BME280;67082;41.704;44.768;2023-07-13T10:46:02;95824.84;;;27.37;29.36
77889;BME280;67082;41.704;44.768;2023-07-13T10:48:32;95827.69;;;27.37;28.77
77889;BME280;67082;41.704;44.768;2023-07-13T10:51:05;95807.22;;;27.39;28.85
77889;BME280;67082;41.704;44.768;2023-07-13T10:53:36;95820.19;;;27.47;30.00
77889;BME280;67082;41.704;44.768;2023-07-13T10:56:27;95810.91;;;27.47;28.21
77889;BME280;67082;41.704;44.768;2023-07-13T11:01:58;95804.09;;;27.57;28.17
77889;BME280;67082;41.704;44.768;2023-07-13T11:04:29;95794.06;;;27.56;28.43
77889;BME280;67082;41.704;44.768;2023-07-13T11:07:23;95795.00;;;27.59;27.73
77889;BME280;67082;41.704;44.768;2023-07-13T11:09:54;95788.03;;;27.67;27.36
77889;BME280;67082;41.704;44.768;2023-07-13T11:17:34;95787.09;;;27.72;27.26
77889;BME280;67082;41.704;44.768;2023-07-13T11:20:21;95776.81;;;27.69;27.42
77889;BME280;67082;41.704;44.768;2023-07-13T11:23:07;95779.94;;;27.79;27.09
77889;BME280;67082;41.704;44.768;2023-07-13T11:25:37;95769.69;;;27.83;26.48
77889;BME280;67082;41.704;44.768;2023-07-13T11:36:15;95766.75;;;28.04;27.34
77889;BME280;67082;41.704;44.768;2023-07-13T11:38:49;95767.44;;;27.97;27.63
77889;BME280;67082;41.704;44.768;2023-07-13T11:41:22;95757.97;;;28.02;26.52
77889;BME280;67082;41.704;44.768;2023-07-13T11:43:54;95749.81;;;27.98;26.87
77889;BME280;67082;41.704;44.768;2023-07-13T11:46:25;95753.03;;;27.95;27.46
77889;BME280;67082;41.704;44.768;2023-07-13T11:48:54;95743.16;;;28.03;26.67
77889;BME280;67082;41.704;44.768;2023-07-13T11:51:30;95740.13;;;28.08;27.42
77889;BME280;67082;41.704;44.768;2023-07-13T11:54:10;95732.34;;;28.09;26.94
77889;BME280;67082;41.704;44.768;2023-07-13T11:56:42;95746.59;;;28.09;26.66
77889;BME280;67082;41.704;44.768;2023-07-13T11:59:11;95740.91;;;28.09;25.60
77889;BME280;67082;41.704;44.768;2023-07-13T12:01:53;95742.97;;;28.08;25.95
77889;BME280;67082;41.704;44.768;2023-07-13T12:04:29;95738.25;;;28.11;25.80
77889;BME280;67082;41.704;44.768;2023-07-13T12:07:06;95736.13;;;28.04;25.29
77889;BME280;67082;41.704;44.768;2023-07-13T12:09:35;95733.31;;;28.12;24.90
77889;BME280;67082;41.704;44.768;2023-07-13T12:12:11;95724.59;;;28.10;25.29
77889;BME280;67082;41.704;44.768;2023-07-13T12:14:40;95730.84;;;28.23;24.57
77889;BME280;67082;41.704;44.768;2023-07-13T12:17:16;95723.63;;;28.22;25.00
77889;BME280;67082;41.704;44.768;2023-07-13T12:19:45;95719.44;;;28.23;26.56
77889;BME280;67082;41.704;44.768;2023-07-13T12:22:16;95726.13;;;28.18;25.54
77889;BME280;67082;41.704;44.768;2023-07-13T12:24:47;95720.41;;;28.18;25.40
77889;BME280;67082;41.704;44.768;2023-07-13T12:27:24;95715.88;;;28.30;25.43
77889;BME280;67082;41.704;44.768;2023-07-13T12:30:02;95721.72;;;28.24;26.23
77889;BME280;67082;41.704;44.768;2023-07-13T12:32:33;95718.34;;;28.33;24.96
77889;BME280;67082;41.704;44.768;2023-07-13T12:35:29;95725.53;;;28.27;25.52
77889;BME280;67082;41.704;44.768;2023-07-13T12:38:04;95716.59;;;28.30;25.26
77889;BME280;67082;41.704;44.768;2023-07-13T12:40:35;95719.28;;;28.36;25.58
77889;BME280;67082;41.704;44.768;2023-07-13T12:43:04;95709.00;;;28.33;26.60
77889;BME280;67082;41.704;44.768;2023-07-13T12:45:34;95712.06;;;28.27;25.24
77889;BME280;67082;41.704;44.768;2023-07-13T12:48:10;95701.03;;;28.24;25.10
77889;BME280;67082;41.704;44.768;2023-07-13T12:50:48;95694.75;;;28.25;24.86
77889;BME280;67082;41.704;44.768;2023-07-13T12:53:23;95698.19;;;28.24;24.84
77889;BME280;67082;41.704;44.768;2023-07-13T12:55:57;95699.72;;;28.25;24.03
77889;BME280;67082;41.704;44.768;2023-07-13T13:00:58;95690.75;;;28.21;24.64
77889;BME280;67082;41.704;44.768;2023-07-13T13:06:06;95697.03;;;28.27;24.45
77889;BME280;67082;41.704;44.768;2023-07-13T13:08:35;95691.16;;;28.25;23.91
77889;BME280;67082;41.704;44.768;2023-07-13T13:11:04;95690.00;;;28.20;23.73
77889;BME280;67082;41.704;44.768;2023-07-13T13:13:32;95678.97;;;28.24;23.59
77889;BME280;67082;41.704;44.768;2023-07-13T13:18:57;95679.38;;;28.21;24.01
77889;BME280;67082;41.704;44.768;2023-07-13T13:21:27;95682.41;;;28.23;24.01
77889;BME280;67082;41.704;44.768;2023-07-13T13:23:55;95676.31;;;28.12;24.08
77889;BME280;67082;41.704;44.768;2023-07-13T13:26:24;95680.53;;;28.18;23.40
77889;BME280;67082;41.704;44.768;2023-07-13T13:28:51;95680.31;;;28.16;23.34
77889;BME280;67082;41.704;44.768;2023-07-13T13:31:20;95683.56;;;28.20;22.66
77889;BME280;67082;41.704;44.768;2023-07-13T13:33:50;95676.34;;;28.19;22.39
77889;BME280;67082;41.704;44.768;2023-07-13T13:36:20;95672.53;;;28.17;22.91
77889;BME280;67082;41.704;44.768;2023-07-13T13:38:50;95664.34;;;28.28;22.71
77889;BME280;67082;41.704;44.768;2023-07-13T13:41:18;95677.66;;;28.25;22.93
77889;BME280;67082;41.704;44.768;2023-07-13T13:43:46;95671.97;;;28.18;23.40
77889;BME280;67082;41.704;44.768;2023-07-13T13:46:21;95664.72;;;28.17;24.13
77889;BME280;67082;41.704;44.768;2023-07-13T13:48:52;95664.16;;;28.18;23.37
77889;BME280;67082;41.704;44.768;2023-07-13T13:51:23;95663.78;;;28.14;23.03
77889;BME280;67082;41.704;44.768;2023-07-13T13:53:52;95655.41;;;28.09;23.38